createdAt,value
2022-11-06T00:01:53.488Z,22.42
2022-11-06T00:03:58.202Z,22.41
2022-11-06T00:06:02.521Z,22.4
2022-11-06T00:08:06.924Z,22.39
2022-11-06T00:10:11.400Z,22.38
2022-11-06T00:12:15.746Z,22.37
2022-11-06T00:14:20.115Z,22.37
2022-11-06T00:16:24.455Z,22.36
2022-11-06T00:18:28.846Z,22.35
2022-11-06T00:20:33.183Z,22.34
2022-11-06T00:22:37.508Z,22.34
2022-11-06T00:24:41.870Z,22.33
2022-11-06T00:26:49.896Z,22.32
2022-11-06T00:28:58.240Z,22.32
2022-11-06T00:31:02.689Z,22.31
2022-11-06T00:33:07.161Z,22.31
2022-11-06T00:35:11.509Z,22.3
2022-11-06T00:37:15.836Z,22.3
2022-11-06T00:39:20.166Z,22.29
2022-11-06T00:41:24.556Z,22.29
2022-11-06T00:43:28.941Z,22.28
2022-11-06T00:45:33.276Z,22.29
2022-11-06T00:47:37.672Z,22.29
2022-11-06T00:49:42.009Z,22.29
2022-11-06T00:51:46.345Z,22.28
2022-11-06T00:53:50.660Z,22.27
2022-11-06T00:55:55.031Z,22.28
2022-11-06T00:57:59.381Z,22.26
2022-11-06T01:00:03.733Z,22.25
2022-11-06T01:02:08.218Z,22.25
2022-11-06T01:04:12.950Z,22.24
2022-11-06T01:06:17.331Z,22.25
2022-11-06T01:08:21.725Z,22.25
2022-11-06T01:10:26.070Z,22.24
2022-11-06T01:12:30.408Z,22.24
2022-11-06T01:14:34.770Z,22.23
2022-11-06T01:16:39.094Z,22.22
2022-11-06T01:18:43.413Z,22.21
2022-11-06T01:20:47.762Z,22.19
2022-11-06T01:22:52.078Z,22.19
2022-11-06T01:24:56.490Z,22.19
2022-11-06T01:29:35.622Z,22.17
2022-11-06T01:31:39.967Z,22.16
2022-11-06T01:33:44.341Z,22.15
2022-11-06T01:35:48.729Z,22.14
2022-11-06T01:37:53.067Z,22.13
2022-11-06T01:39:57.452Z,22.13
2022-11-06T01:42:01.909Z,22.13
2022-11-06T01:44:09.648Z,22.12
2022-11-06T01:46:14.175Z,22.12
2022-11-06T01:48:18.560Z,22.11
2022-11-06T01:50:22.883Z,22.1
2022-11-06T01:52:27.289Z,22.09
2022-11-06T01:54:31.633Z,22.09
2022-11-06T01:56:36.008Z,22.08
2022-11-06T01:58:40.348Z,22.08
2022-11-06T02:00:44.703Z,22.07
2022-11-06T02:02:49.603Z,22.06
2022-11-06T02:04:54.551Z,22.05
2022-11-06T02:06:58.861Z,22.04
2022-11-06T02:09:03.230Z,22.05
2022-11-06T02:11:07.531Z,22.04
2022-11-06T02:13:11.910Z,22.04
2022-11-06T02:15:16.222Z,22.04
2022-11-06T02:17:20.560Z,22.05
2022-11-06T02:19:24.874Z,22.05
2022-11-06T02:21:29.200Z,22.04
2022-11-06T02:23:33.556Z,22.04
2022-11-06T02:25:37.899Z,22.04
2022-11-06T02:27:42.229Z,22.03
2022-11-06T02:29:46.587Z,22.02
2022-11-06T02:31:50.929Z,22.01
2022-11-06T02:33:55.320Z,21.99
2022-11-06T02:35:59.647Z,21.97
2022-11-06T02:38:03.984Z,21.95
2022-11-06T02:40:08.358Z,21.95
2022-11-06T02:42:12.658Z,21.93
2022-11-06T02:44:17.217Z,21.92
2022-11-06T02:46:21.525Z,21.93
2022-11-06T02:48:25.863Z,21.94
2022-11-06T02:50:30.207Z,21.95
2022-11-06T02:52:34.563Z,21.95
2022-11-06T02:54:38.924Z,21.96
2022-11-06T02:56:43.247Z,21.95
2022-11-06T02:58:49.120Z,21.96
2022-11-06T03:00:53.606Z,21.95
2022-11-06T03:02:58.177Z,21.94
2022-11-06T03:05:03.081Z,21.93
2022-11-06T03:07:07.618Z,21.9
2022-11-06T03:09:11.978Z,21.88
2022-11-06T03:11:16.306Z,21.86
2022-11-06T03:13:20.625Z,21.84
2022-11-06T03:15:24.967Z,21.83
2022-11-06T03:17:29.313Z,21.83
2022-11-06T03:19:33.724Z,21.83
2022-11-06T03:21:38.056Z,21.82
2022-11-06T03:23:42.411Z,21.82
2022-11-06T03:25:46.748Z,21.81
2022-11-06T03:27:51.319Z,21.81
2022-11-06T03:29:55.616Z,21.8
2022-11-06T03:31:59.983Z,21.79
2022-11-06T03:34:04.334Z,21.79
2022-11-06T03:36:08.652Z,21.78
2022-11-06T03:38:13.258Z,21.77
2022-11-06T03:40:18.727Z,21.76
2022-11-06T03:42:23.077Z,21.75
2022-11-06T03:44:27.440Z,21.74
2022-11-06T03:46:31.796Z,21.73
2022-11-06T03:48:36.124Z,21.71
2022-11-06T03:50:40.465Z,21.7
2022-11-06T03:52:44.855Z,21.7
2022-11-06T03:54:49.181Z,21.68
2022-11-06T03:56:53.546Z,21.68
2022-11-06T03:58:57.917Z,21.66
2022-11-06T04:01:02.677Z,21.65
2022-11-06T04:03:07.097Z,21.64
2022-11-06T04:05:11.870Z,21.63
2022-11-06T04:07:16.231Z,21.62
2022-11-06T04:09:20.578Z,21.62
2022-11-06T04:11:24.924Z,21.61
2022-11-06T04:13:29.256Z,21.62
2022-11-06T04:15:33.561Z,21.61
2022-11-06T04:17:38.000Z,21.6
2022-11-06T04:19:42.345Z,21.6
2022-11-06T04:21:46.675Z,21.58
2022-11-06T04:23:51.052Z,21.57
2022-11-06T04:25:55.416Z,21.56
2022-11-06T04:27:59.829Z,21.56
2022-11-06T04:30:04.181Z,21.55
2022-11-06T04:32:08.564Z,21.53
2022-11-06T04:34:13.000Z,21.53
2022-11-06T04:36:17.340Z,21.51
2022-11-06T04:38:21.667Z,21.51
2022-11-06T04:40:26.032Z,21.49
2022-11-06T04:42:30.382Z,21.49
2022-11-06T04:44:34.732Z,21.48
2022-11-06T04:46:39.060Z,21.48
2022-11-06T04:48:43.445Z,21.47
2022-11-06T04:50:47.761Z,21.45
2022-11-06T04:52:52.098Z,21.44
2022-11-06T04:54:56.487Z,21.43
2022-11-06T04:57:00.759Z,21.42
2022-11-06T04:59:05.110Z,21.41
2022-11-06T05:01:09.512Z,21.4
2022-11-06T05:03:14.134Z,21.39
2022-11-06T05:05:18.470Z,21.38
2022-11-06T05:07:22.844Z,21.38
2022-11-06T05:09:27.192Z,21.37
2022-11-06T05:11:31.581Z,21.37
2022-11-06T05:13:35.953Z,21.37
2022-11-06T05:15:40.344Z,21.37
2022-11-06T05:17:44.723Z,21.35
2022-11-06T05:19:49.086Z,21.34
2022-11-06T05:21:53.432Z,21.33
2022-11-06T05:23:57.755Z,21.32
2022-11-06T05:26:02.574Z,21.3
2022-11-06T05:28:06.911Z,21.29
2022-11-06T05:30:11.250Z,21.28
2022-11-06T05:32:15.573Z,21.27
2022-11-06T05:34:19.931Z,21.26
2022-11-06T05:36:24.290Z,21.25
2022-11-06T05:38:28.765Z,21.24
2022-11-06T05:40:33.141Z,21.23
2022-11-06T05:42:37.455Z,21.23
2022-11-06T05:44:41.789Z,21.22
2022-11-06T05:46:48.994Z,21.21
2022-11-06T05:48:54.274Z,21.22
2022-11-06T05:50:58.745Z,21.2
2022-11-06T05:53:03.102Z,21.18
2022-11-06T05:55:10.257Z,21.17
2022-11-06T05:57:18.992Z,21.16
2022-11-06T05:59:23.336Z,21.16
2022-11-06T06:01:27.763Z,21.15
2022-11-06T06:03:32.405Z,21.14
2022-11-06T06:05:36.766Z,21.14
2022-11-06T06:07:41.103Z,21.13
2022-11-06T06:09:45.452Z,21.13
2022-11-06T06:11:49.830Z,21.12
2022-11-06T06:13:54.194Z,21.11
2022-11-06T06:15:58.595Z,21.11
2022-11-06T06:18:02.937Z,21.11
2022-11-06T06:20:07.267Z,21.11
2022-11-06T06:22:11.658Z,21.11
2022-11-06T06:24:16.007Z,21.1
2022-11-06T06:26:20.571Z,21.1
2022-11-06T06:28:24.898Z,21.11
2022-11-06T06:30:29.293Z,21.1
2022-11-06T06:32:33.641Z,21.09
2022-11-06T06:34:37.975Z,21.09
2022-11-06T06:36:42.337Z,21.09
2022-11-06T06:38:46.720Z,21.08
2022-11-06T06:40:51.254Z,21.08
2022-11-06T06:42:55.657Z,21.08
2022-11-06T06:44:59.991Z,21.07
2022-11-06T06:47:04.403Z,21.06
2022-11-06T06:49:08.737Z,21.05
2022-11-06T06:51:13.102Z,21.04
2022-11-06T06:53:22.157Z,21.03
2022-11-06T06:55:26.503Z,21.03
2022-11-06T06:57:30.869Z,21.02
2022-11-06T06:59:35.197Z,21.01
2022-11-06T07:01:39.772Z,21.01
2022-11-06T07:03:44.716Z,21
2022-11-06T07:05:49.080Z,20.99
2022-11-06T07:07:53.426Z,20.99
2022-11-06T07:09:57.775Z,20.99
2022-11-06T07:12:02.132Z,20.98
2022-11-06T07:14:06.459Z,20.99
2022-11-06T07:16:10.851Z,20.99
2022-11-06T07:18:15.524Z,20.97
2022-11-06T07:20:20.175Z,20.98
2022-11-06T07:22:30.922Z,20.97
2022-11-06T07:24:40.806Z,20.98
2022-11-06T07:26:45.167Z,20.98
2022-11-06T07:28:49.497Z,20.98
2022-11-06T07:30:53.802Z,20.99
2022-11-06T07:32:58.167Z,21
2022-11-06T07:35:02.524Z,21.01
2022-11-06T07:37:07.775Z,21.02
2022-11-06T07:39:12.268Z,21.02
2022-11-06T07:41:16.626Z,21.03
2022-11-06T07:43:20.971Z,21.03
2022-11-06T07:45:25.318Z,21.04
2022-11-06T07:47:29.665Z,21.05
2022-11-06T07:49:34.050Z,21.06
2022-11-06T07:51:38.407Z,21.05
2022-11-06T07:53:42.764Z,21.05
2022-11-06T07:55:47.116Z,21.04
2022-11-06T07:57:51.482Z,21.04
2022-11-06T07:59:55.825Z,21.05
2022-11-06T08:02:00.328Z,21.07
2022-11-06T08:04:05.119Z,21.07
2022-11-06T08:06:09.447Z,21.09
2022-11-06T08:08:14.224Z,21.1
2022-11-06T08:10:19.574Z,21.11
2022-11-06T08:12:23.917Z,21.11
2022-11-06T08:14:28.283Z,21.12
2022-11-06T08:16:32.640Z,21.13
2022-11-06T08:18:36.984Z,21.14
2022-11-06T08:20:41.320Z,21.16
2022-11-06T08:22:45.754Z,21.17
2022-11-06T08:24:50.149Z,21.19
2022-11-06T08:26:54.527Z,21.2
2022-11-06T08:28:58.946Z,21.22
2022-11-06T08:31:03.297Z,21.25
2022-11-06T08:33:07.675Z,21.29
2022-11-06T08:35:12.054Z,21.32
2022-11-06T08:37:16.425Z,21.34
2022-11-06T08:39:20.814Z,21.36
2022-11-06T08:41:25.472Z,21.38
2022-11-06T08:43:29.864Z,21.41
2022-11-06T08:45:34.260Z,21.43
2022-11-06T08:47:38.592Z,21.46
2022-11-06T08:49:42.972Z,21.47
2022-11-06T08:51:47.308Z,21.49
2022-11-06T08:53:51.789Z,21.53
2022-11-06T08:55:56.354Z,21.57
2022-11-06T08:58:00.764Z,21.6
2022-11-06T09:00:05.134Z,21.63
2022-11-06T09:02:09.547Z,21.66
2022-11-06T09:04:14.203Z,21.7
2022-11-06T09:06:18.581Z,21.74
2022-11-06T09:08:22.902Z,21.79
2022-11-06T09:10:27.270Z,21.83
2022-11-06T09:12:31.628Z,21.86
2022-11-06T09:14:35.969Z,21.91
2022-11-06T09:16:40.354Z,21.95
2022-11-06T09:18:44.733Z,21.98
2022-11-06T09:20:49.075Z,22.01
2022-11-06T09:22:53.460Z,22.04
2022-11-06T09:25:03.442Z,22.07
2022-11-06T09:27:08.456Z,22.1
2022-11-06T09:29:12.842Z,22.14
2022-11-06T09:31:17.228Z,22.18
2022-11-06T09:33:21.830Z,22.22
2022-11-06T09:35:26.250Z,22.25
2022-11-06T09:37:30.597Z,22.29
2022-11-06T09:39:34.961Z,22.31
2022-11-06T09:41:39.357Z,22.36
2022-11-06T09:44:03.900Z,22.38
2022-11-06T09:46:10.091Z,22.41
2022-11-06T09:48:14.462Z,22.43
2022-11-06T09:50:18.845Z,22.46
2022-11-06T09:52:23.193Z,22.49
2022-11-06T09:54:28.256Z,22.51
2022-11-06T09:56:33.015Z,22.53
2022-11-06T09:58:37.382Z,22.56
2022-11-06T10:00:41.841Z,22.6
2022-11-06T10:02:46.617Z,22.63
2022-11-06T10:04:51.253Z,22.66
2022-11-06T10:06:55.655Z,22.69
2022-11-06T10:09:00.019Z,22.74
2022-11-06T10:11:04.397Z,22.77
2022-11-06T10:13:09.148Z,22.79
2022-11-06T10:15:20.618Z,22.82
2022-11-06T10:17:24.978Z,22.85
2022-11-06T10:19:29.406Z,22.88
2022-11-06T10:21:33.788Z,22.91
2022-11-06T10:23:38.099Z,22.93
2022-11-06T10:25:42.508Z,22.96
2022-11-06T10:27:46.868Z,22.98
2022-11-06T10:29:51.215Z,23.01
2022-11-06T10:31:55.588Z,23.04
2022-11-06T10:33:59.962Z,23.06
2022-11-06T10:36:04.283Z,23.08
2022-11-06T10:38:08.657Z,23.11
2022-11-06T10:40:13.298Z,23.15
2022-11-06T10:42:17.635Z,23.21
2022-11-06T10:44:22.036Z,23.26
2022-11-06T10:46:26.357Z,23.32
2022-11-06T10:48:33.319Z,23.39
2022-11-06T10:50:44.745Z,23.47
2022-11-06T10:52:49.193Z,23.56
2022-11-06T10:54:53.569Z,23.63
2022-11-06T10:56:57.937Z,23.71
2022-11-06T10:59:02.903Z,23.77
2022-11-06T11:01:07.265Z,23.83
2022-11-06T11:03:11.873Z,23.81
2022-11-06T11:05:16.246Z,23.75
2022-11-06T11:07:21.828Z,23.7
2022-11-06T11:09:26.552Z,23.66
2022-11-06T11:11:30.941Z,23.62
2022-11-06T11:13:35.299Z,23.61
2022-11-06T11:15:39.644Z,23.59
2022-11-06T11:17:44.011Z,23.58
2022-11-06T11:19:48.398Z,23.58
2022-11-06T11:21:52.755Z,23.56
2022-11-06T11:23:57.171Z,23.55
2022-11-06T11:26:01.574Z,23.54
2022-11-06T11:28:05.984Z,23.54
2022-11-06T11:30:10.482Z,23.56
2022-11-06T11:32:14.807Z,23.55
2022-11-06T11:34:19.202Z,23.55
2022-11-06T11:36:23.650Z,23.55
2022-11-06T11:38:28.041Z,23.53
2022-11-06T11:40:32.395Z,23.53
2022-11-06T11:42:36.763Z,23.55
2022-11-06T11:44:41.156Z,23.57
2022-11-06T11:46:45.488Z,23.58
2022-11-06T11:48:50.037Z,23.56
2022-11-06T11:50:54.390Z,23.55
2022-11-06T11:52:58.732Z,23.53
2022-11-06T11:55:08.096Z,23.51
2022-11-06T11:57:12.601Z,23.5
2022-11-06T11:59:17.043Z,23.5
2022-11-06T12:01:21.449Z,23.49
2022-11-06T12:03:26.070Z,23.46
2022-11-06T12:05:30.704Z,23.44
2022-11-06T12:07:35.101Z,23.42
2022-11-06T12:09:44.509Z,23.39
2022-11-06T12:11:48.869Z,23.39
2022-11-06T12:13:53.242Z,23.37
2022-11-06T12:15:57.654Z,23.36
2022-11-06T12:18:02.019Z,23.35
2022-11-06T12:20:06.433Z,23.33
2022-11-06T12:22:10.771Z,23.32
2022-11-06T12:24:15.184Z,23.32
2022-11-06T12:26:19.531Z,23.29
2022-11-06T12:28:23.877Z,23.25
2022-11-06T12:30:28.267Z,23.22
2022-11-06T12:32:32.716Z,23.2
2022-11-06T12:34:37.083Z,23.19
2022-11-06T12:36:41.471Z,23.17
2022-11-06T12:38:45.838Z,23.14
2022-11-06T12:40:50.217Z,23.1
2022-11-06T12:42:54.558Z,23.08
2022-11-06T12:44:58.909Z,23.06
2022-11-06T12:47:03.314Z,23.03
2022-11-06T12:49:08.100Z,23.02
2022-11-06T12:51:12.472Z,23.02
2022-11-06T12:53:16.820Z,23.02
2022-11-06T12:55:21.179Z,23.02
2022-11-06T12:57:25.554Z,23.02
2022-11-06T12:59:29.962Z,23.02
2022-11-06T13:01:34.485Z,23.04
2022-11-06T13:03:39.310Z,23.06
2022-11-06T13:05:43.672Z,23.06
2022-11-06T13:07:48.862Z,23.07
2022-11-06T13:09:53.188Z,23.06
2022-11-06T13:11:57.552Z,23.03
2022-11-06T13:14:02.007Z,23
2022-11-06T13:16:06.388Z,22.98
2022-11-06T13:18:10.901Z,22.95
2022-11-06T13:20:16.287Z,22.94
2022-11-06T13:22:20.655Z,22.94
2022-11-06T13:24:24.974Z,22.95
2022-11-06T13:26:29.319Z,22.97
2022-11-06T13:28:33.701Z,22.96
2022-11-06T13:30:38.051Z,22.96
2022-11-06T13:32:42.431Z,22.95
2022-11-06T13:34:50.927Z,22.95
2022-11-06T13:36:55.273Z,22.97
2022-11-06T13:38:59.645Z,22.97
2022-11-06T13:41:04.042Z,22.98
2022-11-06T13:43:08.521Z,23.01
2022-11-06T13:45:12.866Z,23
2022-11-06T13:47:17.241Z,23.02
2022-11-06T13:49:21.622Z,23.02
2022-11-06T13:51:25.975Z,23.03
2022-11-06T13:53:30.352Z,23.02
2022-11-06T13:55:34.722Z,23.01
2022-11-06T13:57:39.319Z,23
2022-11-06T13:59:43.708Z,22.99
2022-11-06T14:01:48.226Z,23
2022-11-06T14:03:53.089Z,23
2022-11-06T14:05:57.471Z,23.01
2022-11-06T14:08:01.860Z,23.01
2022-11-06T14:10:06.282Z,23.02
2022-11-06T14:12:14.907Z,23.03
2022-11-06T14:14:19.528Z,23.01
2022-11-06T14:16:23.933Z,22.99
2022-11-06T14:18:28.304Z,22.99
2022-11-06T14:20:32.724Z,23.01
2022-11-06T14:22:37.106Z,23.03
2022-11-06T14:24:41.463Z,23.06
2022-11-06T14:26:45.840Z,23.07
2022-11-06T14:28:50.216Z,23.05
2022-11-06T14:33:33.352Z,23.03
2022-11-06T14:35:37.710Z,23.07
2022-11-06T14:37:42.125Z,23.13
2022-11-06T14:39:46.469Z,23.18
2022-11-06T14:41:50.817Z,23.24
2022-11-06T14:43:55.190Z,23.29
2022-11-06T14:45:59.540Z,23.31
2022-11-06T14:48:03.894Z,23.34
2022-11-06T14:50:08.259Z,23.36
2022-11-06T14:52:12.712Z,23.38
2022-11-06T14:54:17.106Z,23.4
2022-11-06T14:56:21.458Z,23.41
2022-11-06T14:58:25.820Z,23.41
2022-11-06T15:00:30.175Z,23.41
2022-11-06T15:02:34.602Z,23.4
2022-11-06T15:04:39.204Z,23.4
2022-11-06T15:06:43.507Z,23.41
2022-11-06T15:08:47.818Z,23.41
2022-11-06T15:10:52.392Z,23.45
2022-11-06T15:12:56.747Z,23.49
2022-11-06T15:15:01.147Z,23.49
2022-11-06T15:17:05.548Z,23.49
2022-11-06T15:19:09.950Z,23.49
2022-11-06T15:21:14.314Z,23.49
2022-11-06T15:23:18.647Z,23.5
2022-11-06T15:25:23.043Z,23.51
2022-11-06T15:27:27.352Z,23.51
2022-11-06T15:29:31.808Z,23.54
2022-11-06T15:31:36.167Z,23.57
2022-11-06T15:33:40.590Z,23.59
2022-11-06T15:35:44.972Z,23.62
2022-11-06T15:37:49.352Z,23.65
2022-11-06T15:39:59.333Z,23.68
2022-11-06T15:42:05.415Z,23.7
2022-11-06T15:44:09.772Z,23.72
2022-11-06T15:46:14.131Z,23.74
2022-11-06T15:48:18.466Z,23.76
2022-11-06T15:50:22.828Z,23.77
2022-11-06T15:52:27.222Z,23.76
2022-11-06T15:54:31.604Z,23.78
2022-11-06T15:56:38.699Z,23.8
2022-11-06T15:58:43.099Z,23.82
2022-11-06T16:00:47.542Z,23.83
2022-11-06T16:02:51.964Z,23.85
2022-11-06T16:04:56.380Z,23.88
2022-11-06T16:07:00.756Z,23.9
2022-11-06T16:09:05.168Z,23.93
2022-11-06T16:11:13.322Z,23.94
2022-11-06T16:13:17.880Z,23.95
2022-11-06T16:15:22.251Z,23.94
2022-11-06T16:17:26.632Z,23.96
2022-11-06T16:19:30.994Z,23.96
2022-11-06T16:21:35.351Z,23.97
2022-11-06T16:23:39.711Z,23.98
2022-11-06T16:25:44.096Z,23.98
2022-11-06T16:27:48.519Z,24
2022-11-06T16:29:52.900Z,24
2022-11-06T16:31:57.236Z,24.01
2022-11-06T16:34:01.642Z,24
2022-11-06T16:36:06.014Z,24.01
2022-11-06T16:38:34.332Z,24.01
2022-11-06T16:40:45.755Z,24
2022-11-06T16:42:50.117Z,23.99
2022-11-06T16:44:54.474Z,23.99
2022-11-06T16:46:58.834Z,23.98
2022-11-06T16:49:03.195Z,23.98
2022-11-06T16:51:07.538Z,23.96
2022-11-06T16:53:12.273Z,23.9
2022-11-06T16:55:17.983Z,23.84
2022-11-06T16:57:22.347Z,23.79
2022-11-06T16:59:26.718Z,23.74
2022-11-06T17:01:31.235Z,23.67
2022-11-06T17:03:36.008Z,23.63
2022-11-06T17:05:40.416Z,23.59
2022-11-06T17:07:45.110Z,23.54
2022-11-06T17:09:49.508Z,23.51
2022-11-06T17:11:53.895Z,23.49
2022-11-06T17:13:58.275Z,23.47
2022-11-06T17:16:02.670Z,23.46
2022-11-06T17:18:07.045Z,23.43
2022-11-06T17:20:11.422Z,23.39
2022-11-06T17:22:15.802Z,23.34
2022-11-06T17:24:36.764Z,23.3
2022-11-06T17:26:42.002Z,23.28
2022-11-06T17:28:46.388Z,23.28
2022-11-06T17:30:50.757Z,23.32
2022-11-06T17:32:55.118Z,23.32
2022-11-06T17:34:59.517Z,23.33
2022-11-06T17:37:03.934Z,23.32
2022-11-06T17:39:08.303Z,23.33
2022-11-06T17:41:12.673Z,23.34
2022-11-06T17:43:17.481Z,23.35
2022-11-06T17:45:22.017Z,23.34
2022-11-06T17:47:26.328Z,23.31
2022-11-06T17:49:30.727Z,23.28
2022-11-06T17:51:35.090Z,23.26
2022-11-06T17:53:39.454Z,23.26
2022-11-06T17:55:43.885Z,23.25
2022-11-06T17:57:48.235Z,23.23
2022-11-06T17:59:52.681Z,23.23
2022-11-06T18:01:57.123Z,23.23
2022-11-06T18:04:02.052Z,23.22
2022-11-06T18:06:06.468Z,23.19
2022-11-06T18:08:11.079Z,23.22
2022-11-06T18:10:16.832Z,23.25
2022-11-06T18:12:21.511Z,23.33
2022-11-06T18:14:25.883Z,23.38
2022-11-06T18:16:30.274Z,23.43
2022-11-06T18:18:34.703Z,23.44
2022-11-06T18:20:39.152Z,23.45
2022-11-06T18:22:43.490Z,23.45
2022-11-06T18:24:47.822Z,23.45
2022-11-06T18:26:52.208Z,23.45
2022-11-06T18:28:56.584Z,23.42
2022-11-06T18:31:00.924Z,23.41
2022-11-06T18:33:05.297Z,23.4
2022-11-06T18:35:09.745Z,23.4
2022-11-06T18:37:14.145Z,23.39
2022-11-06T18:39:18.446Z,23.39
2022-11-06T18:41:22.778Z,23.39
2022-11-06T18:43:27.063Z,23.41
2022-11-06T18:45:31.444Z,23.43
2022-11-06T18:47:35.832Z,23.43
2022-11-06T18:49:40.228Z,23.42
2022-11-06T18:51:44.658Z,23.36
2022-11-06T18:53:49.067Z,23.32
2022-11-06T18:55:53.451Z,23.29
2022-11-06T18:57:57.856Z,23.3
2022-11-06T19:00:02.391Z,23.3
2022-11-06T19:02:07.042Z,23.31
2022-11-06T19:04:12.004Z,23.33
2022-11-06T19:06:16.657Z,23.34
2022-11-06T19:08:21.560Z,23.36
2022-11-06T19:10:25.857Z,23.37
2022-11-06T19:12:30.260Z,23.4
2022-11-06T19:14:34.602Z,23.43
2022-11-06T19:16:38.972Z,23.48
2022-11-06T19:18:43.395Z,23.51
2022-11-06T19:20:47.756Z,23.54
2022-11-06T19:22:52.151Z,23.57
2022-11-06T19:24:56.522Z,23.59
2022-11-06T19:27:00.948Z,23.62
2022-11-06T19:29:05.353Z,23.64
2022-11-06T19:31:09.794Z,23.66
2022-11-06T19:33:14.524Z,23.67
2022-11-06T19:35:19.709Z,23.68
2022-11-06T19:37:24.177Z,23.71
2022-11-06T19:39:28.584Z,23.73
2022-11-06T19:41:32.963Z,23.74
2022-11-06T19:43:37.393Z,23.74
2022-11-06T19:45:41.760Z,23.75
2022-11-06T19:47:46.197Z,23.75
2022-11-06T19:49:50.782Z,23.69
2022-11-06T19:51:55.179Z,23.6
2022-11-06T19:54:48.812Z,23.45
2022-11-06T19:57:30.217Z,23.35
2022-11-06T19:59:34.902Z,23.29
2022-11-06T20:01:39.304Z,23.23
2022-11-06T20:03:44.189Z,23.1
2022-11-06T20:05:48.592Z,23
2022-11-06T20:07:52.998Z,22.92
2022-11-06T20:09:57.428Z,22.85
2022-11-06T20:12:01.801Z,22.77
2022-11-06T20:14:06.298Z,22.72
2022-11-06T20:16:10.661Z,22.64
2022-11-06T20:18:15.113Z,22.61
2022-11-06T20:20:19.497Z,22.56
2022-11-06T20:22:23.873Z,22.52
2022-11-06T20:24:28.273Z,22.48
2022-11-06T20:26:32.627Z,22.45
2022-11-06T20:28:37.026Z,22.41
2022-11-06T20:30:41.476Z,22.39
2022-11-06T20:32:45.853Z,22.36
2022-11-06T20:34:50.304Z,22.32
2022-11-06T20:36:54.753Z,22.27
2022-11-06T20:38:59.153Z,22.26
2022-11-06T20:41:03.550Z,22.23
2022-11-06T20:43:07.937Z,22.21
2022-11-06T20:45:12.463Z,22.19
2022-11-06T20:47:16.834Z,22.17
2022-11-06T20:49:21.314Z,22.14
2022-11-06T20:51:25.779Z,22.12
2022-11-06T20:53:30.176Z,22.1
2022-11-06T20:55:34.568Z,22.08
2022-11-06T20:57:38.917Z,22.06
2022-11-06T20:59:43.308Z,22.05
2022-11-06T21:01:47.852Z,22.04
2022-11-06T21:03:52.801Z,22.04
2022-11-06T21:05:57.236Z,22.03
2022-11-06T21:08:01.702Z,22.02
2022-11-06T21:10:06.099Z,22.02
2022-11-06T21:12:10.875Z,22.01
2022-11-06T21:14:15.217Z,21.97
2022-11-06T21:16:19.616Z,21.96
2022-11-06T21:18:23.995Z,21.95
2022-11-06T21:20:28.372Z,21.94
2022-11-06T21:22:32.749Z,21.92
2022-11-06T21:24:37.116Z,21.92
2022-11-06T21:26:41.489Z,21.92
2022-11-06T21:28:45.926Z,21.93
2022-11-06T21:30:50.305Z,21.91
2022-11-06T21:32:54.719Z,21.88
2022-11-06T21:34:59.140Z,21.88
2022-11-06T21:37:03.557Z,21.85
2022-11-06T21:39:08.105Z,21.85
2022-11-06T21:41:12.466Z,21.84
2022-11-06T21:43:16.887Z,21.81
2022-11-06T21:45:21.335Z,21.82
2022-11-06T21:47:25.718Z,21.83
2022-11-06T21:49:30.161Z,21.81
2022-11-06T21:51:34.549Z,21.79
2022-11-06T21:53:38.923Z,21.78
2022-11-06T21:55:43.323Z,21.78
2022-11-06T21:57:52.405Z,21.78
2022-11-06T21:59:56.771Z,21.76
2022-11-06T22:02:01.263Z,21.75
2022-11-06T22:04:06.112Z,21.76
2022-11-06T22:06:10.451Z,21.75
2022-11-06T22:08:15.075Z,21.72
2022-11-06T22:10:20.194Z,21.72
2022-11-06T22:12:25.712Z,21.7
2022-11-06T22:14:30.088Z,21.68
2022-11-06T22:16:34.509Z,21.64
2022-11-06T22:18:38.883Z,21.65
2022-11-06T22:20:43.273Z,21.69
2022-11-06T22:22:47.614Z,21.72
2022-11-06T22:24:52.005Z,21.74
2022-11-06T22:26:56.421Z,21.75
2022-11-06T22:29:00.778Z,21.77
2022-11-06T22:31:05.150Z,21.78
2022-11-06T22:33:09.699Z,21.77
2022-11-06T22:35:14.946Z,21.74
2022-11-06T22:37:19.586Z,21.75
2022-11-06T22:39:23.963Z,21.72
2022-11-06T22:41:28.321Z,21.72
2022-11-06T22:43:32.717Z,21.71
2022-11-06T22:45:37.456Z,21.68
2022-11-06T22:47:42.179Z,21.67
2022-11-06T22:49:46.550Z,21.65
2022-11-06T22:51:50.955Z,21.63
2022-11-06T22:53:55.305Z,21.62
2022-11-06T22:55:59.676Z,21.59
2022-11-06T22:58:04.056Z,21.58
2022-11-06T23:00:08.439Z,21.56
2022-11-06T23:02:12.864Z,21.53
2022-11-06T23:04:17.572Z,21.54
2022-11-06T23:06:21.919Z,21.53
2022-11-06T23:08:26.283Z,21.51
2022-11-06T23:10:30.758Z,21.5
2022-11-06T23:12:35.085Z,21.49
2022-11-06T23:14:39.443Z,21.49
2022-11-06T23:16:43.809Z,21.47
2022-11-06T23:18:48.153Z,21.44
2022-11-06T23:20:52.538Z,21.43
2022-11-06T23:22:56.894Z,21.42
2022-11-06T23:25:01.217Z,21.4
2022-11-06T23:27:05.615Z,21.39
2022-11-06T23:29:09.944Z,21.38
2022-11-06T23:31:14.280Z,21.37
2022-11-06T23:33:18.683Z,21.37
2022-11-06T23:35:23.181Z,21.38
2022-11-06T23:37:35.487Z,21.36
2022-11-06T23:39:39.850Z,21.35
2022-11-06T23:41:44.209Z,21.35
2022-11-06T23:43:49.054Z,21.35
2022-11-06T23:45:53.425Z,21.34
2022-11-06T23:47:57.765Z,21.32
2022-11-06T23:50:07.021Z,21.33
2022-11-06T23:52:11.355Z,21.31
2022-11-06T23:54:15.689Z,21.31
2022-11-06T23:56:20.071Z,21.31
2022-11-06T23:58:24.458Z,21.31
